createdAt,value
2022-12-02T00:00:17.043Z,30.163
2022-12-02T00:05:16.915Z,30.163
2022-12-02T00:10:20.150Z,30.163
2022-12-02T00:15:20.143Z,30.162
2022-12-02T00:20:20.043Z,30.162
2022-12-02T00:25:20.110Z,30.162
2022-12-02T00:30:20.051Z,30.173
2022-12-02T00:35:20.128Z,30.173
2022-12-02T00:40:20.111Z,30.173
2022-12-02T00:45:20.123Z,30.179
2022-12-02T00:50:20.228Z,30.179
2022-12-02T00:55:17.049Z,30.179
2022-12-02T01:00:20.276Z,30.187
2022-12-02T01:05:20.210Z,30.187
2022-12-02T01:10:20.224Z,30.187
2022-12-02T01:15:20.214Z,30.193
2022-12-02T01:20:20.308Z,30.193
2022-12-02T01:25:20.186Z,30.193
2022-12-02T01:30:20.191Z,30.194
2022-12-02T01:35:20.217Z,30.194
2022-12-02T01:40:20.325Z,30.194
2022-12-02T01:45:17.182Z,30.199
2022-12-02T01:50:17.231Z,30.199
2022-12-02T01:55:20.355Z,30.199
2022-12-02T02:00:20.395Z,30.210
2022-12-02T02:05:20.209Z,30.210
2022-12-02T02:10:20.360Z,30.210
2022-12-02T02:15:20.374Z,30.211
2022-12-02T02:20:20.282Z,30.211
2022-12-02T02:25:20.945Z,30.211
2022-12-02T02:30:20.505Z,30.218
2022-12-02T02:35:20.476Z,30.218
2022-12-02T02:40:17.315Z,30.218
2022-12-02T02:45:17.241Z,30.224
2022-12-02T02:50:20.616Z,30.224
2022-12-02T02:55:20.452Z,30.224
2022-12-02T03:00:20.442Z,30.216
2022-12-02T03:05:20.463Z,30.216
2022-12-02T03:10:20.542Z,30.216
2022-12-02T03:15:20.430Z,30.219
2022-12-02T03:20:20.504Z,30.219
2022-12-02T03:25:20.504Z,30.219
2022-12-02T03:30:20.391Z,30.225
2022-12-02T03:35:17.373Z,30.225
2022-12-02T03:40:17.590Z,30.225
2022-12-02T03:45:20.842Z,30.229
2022-12-02T03:50:20.482Z,30.229
2022-12-02T03:55:20.445Z,30.229
2022-12-02T04:00:20.561Z,30.241
2022-12-02T04:05:20.561Z,30.241
2022-12-02T04:10:20.742Z,30.241
2022-12-02T04:15:15.513Z,30.249
2022-12-02T04:20:15.652Z,30.249
2022-12-02T04:25:18.584Z,30.249
2022-12-02T04:30:18.518Z,30.254
2022-12-02T04:35:18.720Z,30.254
2022-12-02T04:40:18.650Z,30.254
2022-12-02T04:45:16.553Z,30.256
2022-12-02T04:50:16.669Z,30.256
2022-12-02T04:55:19.664Z,30.256
2022-12-02T05:00:15.845Z,30.258
2022-12-02T05:05:15.798Z,30.258
2022-12-02T05:10:18.953Z,30.258
2022-12-02T05:15:18.978Z,30.257
2022-12-02T05:20:19.196Z,30.257
2022-12-02T05:25:18.919Z,30.257
2022-12-02T05:30:18.883Z,30.270
2022-12-02T05:35:19.033Z,30.270
2022-12-02T05:40:19.028Z,30.270
2022-12-02T05:45:19.051Z,30.273
2022-12-02T05:50:19.054Z,30.273
2022-12-02T05:55:15.997Z,30.273
2022-12-02T06:00:15.891Z,30.273
2022-12-02T06:05:19.148Z,30.273
2022-12-02T06:10:19.042Z,30.273
2022-12-02T06:15:19.087Z,30.285
2022-12-02T06:20:19.057Z,30.285
2022-12-02T06:25:19.142Z,30.285
2022-12-02T06:30:19.038Z,30.290
2022-12-02T06:35:19.088Z,30.290
2022-12-02T06:40:28.116Z,30.290
2022-12-02T06:45:20.572Z,30.288
2022-12-02T06:50:16.030Z,30.288
2022-12-02T06:55:16.220Z,30.288
2022-12-02T07:00:19.275Z,30.292
2022-12-02T07:05:19.153Z,30.292
2022-12-02T07:10:19.214Z,30.292
2022-12-02T07:15:19.251Z,30.294
2022-12-02T07:20:19.206Z,30.294
2022-12-02T07:25:19.267Z,30.294
2022-12-02T07:30:19.209Z,30.303
2022-12-02T07:35:19.364Z,30.303
2022-12-02T07:40:16.159Z,30.303
2022-12-02T07:45:16.122Z,30.311
2022-12-02T07:50:19.487Z,30.311
2022-12-02T07:55:25.798Z,30.311
2022-12-02T08:00:19.322Z,30.320
2022-12-02T08:05:19.319Z,30.320
2022-12-02T08:10:16.286Z,30.320
2022-12-02T08:15:19.510Z,30.323
2022-12-02T08:20:19.331Z,30.323
2022-12-02T08:25:19.408Z,30.323
2022-12-02T08:30:19.251Z,30.332
2022-12-02T08:35:16.252Z,30.332
2022-12-02T08:40:16.491Z,30.332
2022-12-02T08:45:19.459Z,30.347
2022-12-02T08:50:19.500Z,30.347
2022-12-02T08:55:19.516Z,30.347
2022-12-02T09:00:19.475Z,30.366
2022-12-02T09:05:19.524Z,30.366
2022-12-02T09:10:19.477Z,30.366
2022-12-02T09:15:19.421Z,30.364
2022-12-02T09:20:19.672Z,30.364
2022-12-02T09:25:19.484Z,30.364
2022-12-02T09:30:16.585Z,30.367
2022-12-02T09:35:16.494Z,30.367
2022-12-02T09:40:19.553Z,30.367
2022-12-02T09:45:19.598Z,30.367
2022-12-02T09:50:19.643Z,30.367
2022-12-02T09:55:19.518Z,30.367
2022-12-02T10:00:19.716Z,30.368
2022-12-02T10:05:19.572Z,30.368
2022-12-02T10:10:19.709Z,30.368
2022-12-02T10:15:19.659Z,30.379
2022-12-02T10:20:16.595Z,30.379
2022-12-02T10:25:16.513Z,30.379
2022-12-02T10:30:19.603Z,30.382
2022-12-02T10:35:19.655Z,30.382
2022-12-02T10:40:19.687Z,30.382
2022-12-02T10:45:19.725Z,30.394
2022-12-02T10:50:19.779Z,30.394
2022-12-02T10:55:19.791Z,30.394
2022-12-02T11:00:19.803Z,30.408
2022-12-02T11:05:19.833Z,30.408
2022-12-02T11:10:19.798Z,30.408
2022-12-02T11:15:16.647Z,30.410
2022-12-02T11:20:16.698Z,30.410
2022-12-02T11:25:16.917Z,30.410
2022-12-02T11:30:19.793Z,30.417
2022-12-02T11:35:20.130Z,30.417
2022-12-02T11:40:19.799Z,30.417
2022-12-02T11:45:19.766Z,30.425
2022-12-02T11:50:19.850Z,30.425
2022-12-02T11:55:19.784Z,30.425
2022-12-02T12:00:19.831Z,30.425
2022-12-02T12:05:19.899Z,30.425
2022-12-02T12:10:16.771Z,30.425
2022-12-02T12:15:16.777Z,30.431
2022-12-02T12:20:16.914Z,30.431
2022-12-02T12:25:23.465Z,30.431
2022-12-02T12:30:19.925Z,30.435
2022-12-02T12:35:20.056Z,30.435
2022-12-02T12:40:19.989Z,30.435
2022-12-02T12:45:20.205Z,30.438
2022-12-02T12:50:20.011Z,30.438
2022-12-02T12:55:19.997Z,30.438
2022-12-02T13:00:20.119Z,30.447
2022-12-02T13:05:16.940Z,30.447
2022-12-02T13:10:16.982Z,30.447
2022-12-02T13:15:20.094Z,30.452
2022-12-02T13:20:20.097Z,30.452
2022-12-02T13:25:20.116Z,30.452
2022-12-02T13:30:19.975Z,30.456
2022-12-02T13:35:22.646Z,30.456
2022-12-02T13:40:20.168Z,30.456
2022-12-02T13:45:20.186Z,30.458
2022-12-02T13:50:20.293Z,30.458
2022-12-02T13:55:20.104Z,30.458
2022-12-02T14:00:17.099Z,30.456
2022-12-02T14:05:20.149Z,30.456
2022-12-02T14:10:20.191Z,30.456
2022-12-02T14:15:20.242Z,30.457
2022-12-02T14:20:20.084Z,30.457
2022-12-02T14:25:20.194Z,30.457
2022-12-02T14:30:20.154Z,30.459
2022-12-02T14:35:20.267Z,30.459
2022-12-02T14:40:20.241Z,30.459
2022-12-02T14:45:20.368Z,30.455
2022-12-02T14:50:17.265Z,30.455
2022-12-02T14:55:17.177Z,30.455
2022-12-02T15:00:20.418Z,30.449
2022-12-02T15:05:20.327Z,30.449
2022-12-02T15:10:20.404Z,30.449
2022-12-02T15:16:01.382Z,30.442
2022-12-02T15:20:20.319Z,30.442
2022-12-02T15:25:20.406Z,30.442
2022-12-02T15:30:20.555Z,30.436
2022-12-02T15:35:20.454Z,30.436
2022-12-02T15:40:20.409Z,30.436
2022-12-02T15:45:17.277Z,30.430
2022-12-02T15:50:17.342Z,30.430
2022-12-02T15:55:20.493Z,30.430
2022-12-02T16:00:20.454Z,30.424
2022-12-02T16:05:20.395Z,30.424
2022-12-02T16:10:20.467Z,30.424
2022-12-02T16:15:20.372Z,30.428
2022-12-02T16:20:20.365Z,30.428
2022-12-02T16:25:20.474Z,30.428
2022-12-02T16:30:20.475Z,30.428
2022-12-02T16:35:17.422Z,30.428
2022-12-02T16:40:17.471Z,30.428
2022-12-02T16:45:20.639Z,30.413
2022-12-02T16:50:20.487Z,30.413
2022-12-02T16:55:20.557Z,30.413
2022-12-02T17:00:20.704Z,30.398
2022-12-02T17:05:20.645Z,30.398
2022-12-02T17:10:20.563Z,30.398
2022-12-02T17:15:15.532Z,30.393
2022-12-02T17:20:20.639Z,30.393
2022-12-02T17:25:18.643Z,30.393
2022-12-02T17:30:18.566Z,30.385
2022-12-02T17:35:18.707Z,30.385
2022-12-02T17:40:18.653Z,30.385
2022-12-02T17:45:18.625Z,30.382
2022-12-02T17:50:18.689Z,30.382
2022-12-02T17:55:18.581Z,30.382
2022-12-02T18:00:18.617Z,30.381
2022-12-02T18:05:18.705Z,30.381
2022-12-02T18:10:15.539Z,30.381
2022-12-02T18:15:18.786Z,30.376
2022-12-02T18:20:18.700Z,30.376
2022-12-02T18:25:18.652Z,30.376
2022-12-02T18:30:18.717Z,30.381
2022-12-02T18:35:18.749Z,30.381
2022-12-02T18:40:18.852Z,30.381
2022-12-02T18:45:18.807Z,30.382
2022-12-02T18:50:18.806Z,30.382
2022-12-02T18:55:18.754Z,30.382
2022-12-02T19:00:15.601Z,30.381
2022-12-02T19:05:15.645Z,30.381
2022-12-02T19:10:18.935Z,30.381
2022-12-02T19:15:18.936Z,30.382
2022-12-02T19:20:18.847Z,30.382
2022-12-02T19:25:18.805Z,30.382
2022-12-02T19:30:18.799Z,30.384
2022-12-02T19:35:19.032Z,30.384
2022-12-02T19:40:18.814Z,30.384
2022-12-02T19:45:18.966Z,30.383
2022-12-02T19:50:18.899Z,30.383
2022-12-02T19:55:15.746Z,30.383
2022-12-02T20:00:15.760Z,30.381
2022-12-02T20:05:19.090Z,30.381
2022-12-02T20:10:18.883Z,30.381
2022-12-02T20:15:18.963Z,30.381
2022-12-02T20:20:19.038Z,30.381
2022-12-02T20:25:18.943Z,30.381
2022-12-02T20:30:18.838Z,30.380
2022-12-02T20:35:19.004Z,30.380
2022-12-02T20:40:19.076Z,30.380
2022-12-02T20:45:18.974Z,30.381
2022-12-02T20:50:15.836Z,30.381
2022-12-02T20:55:19.148Z,30.381
2022-12-02T21:00:19.050Z,30.380
2022-12-02T21:05:18.985Z,30.380
2022-12-02T21:10:19.006Z,30.380
2022-12-02T21:15:18.982Z,30.382
2022-12-02T21:20:19.173Z,30.382
2022-12-02T21:25:19.118Z,30.382
2022-12-02T21:30:18.976Z,30.382
2022-12-02T21:35:19.068Z,30.382
2022-12-02T21:40:16.020Z,30.382
2022-12-02T21:45:16.104Z,30.382
2022-12-02T21:50:19.143Z,30.382
2022-12-02T21:55:19.143Z,30.382
2022-12-02T22:00:19.259Z,30.382
2022-12-02T22:05:19.176Z,30.382
2022-12-02T22:10:19.154Z,30.382
2022-12-02T22:15:19.169Z,30.383
2022-12-02T22:20:19.112Z,30.383
2022-12-02T22:25:19.130Z,30.383
2022-12-02T22:30:19.038Z,30.382
2022-12-02T22:35:16.077Z,30.382
2022-12-02T22:40:16.116Z,30.382
2022-12-02T22:45:19.300Z,30.393
2022-12-02T22:50:19.308Z,30.393
2022-12-02T22:55:19.260Z,30.393
2022-12-02T23:00:19.224Z,30.397
2022-12-02T23:05:19.288Z,30.397
2022-12-02T23:10:19.301Z,30.397
2022-12-02T23:15:37.220Z,30.398
2022-12-02T23:20:19.259Z,30.398
2022-12-02T23:25:19.207Z,30.398
2022-12-02T23:30:16.153Z,30.398
2022-12-02T23:35:16.332Z,30.398
2022-12-02T23:40:19.355Z,30.398
2022-12-02T23:45:19.431Z,30.393
2022-12-02T23:50:19.290Z,30.393
2022-12-02T23:55:19.371Z,30.393
